• Join FlightAware (Why Join?)
  • Login
  • US Flag 
11:14PM EDT


 

Airport Tracker/Info


-or-


 

Live Flight TrackerFlight Track Log ✈ EGF4154 ✈ 24-Apr-2013 ✈ KTUL - KORD

Flight Track Log - Related Links

Times and Time Zones

All times are in EDT time to prevent confusion due to time zone crossing. See the EGF4154 flight status page for this flight to view local times or setup timezone preferences in your user account.

Time Position Orientation Groundspeed Altitude Reporting Facility
EDT Latitude Longitude Course Direction KTS MPH feet Rate Location/Type
03:18PM 36.1956 -95.9150 58° Northeast 163 188 1,500  Level Kansas City Center
03:19PM 36.1956 -95.9408 270° West 169 194 2,300 2,040 Climbing Kansas City Center
03:20PM 36.2025 -96.0011 278° West 209 241 4,500 2,400 Climbing Kansas City Center
03:21PM 36.3500 -95.5335 64° Northeast  Level FlightAware Approximate
03:21PM 36.2508 -95.9756 23° Northeast 225 259 7,100  Level Kansas City Center
03:22PM 36.4017 -95.4133 58° Northeast  Level FlightAware Approximate
03:22PM 36.2819 -95.8950 64° Northeast 254 292 9,100  Level Kansas City Center
03:23PM 36.4596 -95.2974 58° Northeast  Level FlightAware Approximate
03:23PM 36.3197 -95.8078 62° Northeast 279 321 10,900  Level Kansas City Center
03:24PM 36.5101 -95.1799 58° Northeast  Level FlightAware Approximate
03:24PM 36.3717 -95.6875 62° Northeast 322 371 12,800  Level Kansas City Center
03:25PM 36.4194 -95.5794 61° Northeast 346 398 14,400 1,380 Climbing Kansas City Center
03:26PM 36.4656 -95.4686 63° Northeast 371 427 15,700 1,320 Climbing Kansas City Center
03:27PM 36.5181 -95.3481 62° Northeast 391 450 17,200 1,200 Climbing Kansas City Center
03:28PM 36.5714 -95.2225 62° Northeast 406 467 18,200 1,200 Climbing Kansas City Center
03:29PM 36.6347 -95.0739 62° Northeast 422 486 19,800 1,500 Climbing Kansas City Center
03:30PM 36.6914 -94.9389 62° Northeast 430 495 21,300 1,200 Climbing Kansas City Center
03:31PM 36.7511 -94.7986 62° Northeast 443 510 22,400 960 Climbing Kansas City Center
03:32PM 36.8119 -94.6536 62° Northeast 457 526 23,400 1,080 Climbing Kansas City Center
03:33PM 36.8872 -94.4736 62° Northeast 479 551 24,700 1,080 Climbing Kansas City Center
03:34PM 36.9503 -94.3233 62° Northeast 487 560 25,700 960 Climbing Kansas City Center
03:35PM 37.0147 -94.1686 62° Northeast 495 570 26,800 960 Climbing Kansas City Center
03:36PM 37.0781 -94.0139 63° Northeast 498 573 27,800 960 Climbing Kansas City Center
03:37PM 37.1442 -93.8539 63° Northeast 500 575 28,900 960 Climbing Kansas City Center
03:38PM 37.2078 -93.6981 63° Northeast 501 577 29,900 1,020 Climbing Kansas City Center
03:39PM 37.2722 -93.5403 63° Northeast 505 581 31,000 960 Climbing Kansas City Center
03:40PM 37.3386 -93.3808 62° Northeast 511 588 32,000 1,080 Climbing Kansas City Center
03:41PM 37.4592 -93.2394 43° Northeast 493 567 33,300 1,080 Climbing Kansas City Center
03:42PM 37.5675 -93.1381 37° Northeast 483 556 34,300 960 Climbing Kansas City Center
03:44PM 37.6778 -93.0389 35° Northeast 484 557 35,300 960 Climbing Kansas City Center
03:45PM 37.7858 -92.9358 37° Northeast 482 555 36,300 780 Climbing Kansas City Center
03:46PM 37.8942 -92.8350 36° Northeast 479 551 37,000 300 Climbing Kansas City Center
03:47PM 38.0056 -92.7311 36° Northeast 480 552 37,000  Level Kansas City Center
03:48PM 38.1142 -92.6261 37° Northeast 486 559 37,000  Level Kansas City Center
03:49PM 38.2061 -92.5408 36° Northeast 490 564 37,000  Level Kansas City Center
03:50PM 38.3408 -92.4139 36° Northeast 496 571 37,000  Level Kansas City Center
03:51PM 38.4531 -92.3050 37° Northeast 501 577 37,000  Level Kansas City Center
03:52PM 38.5850 -92.1778 37° Northeast 494 568 37,000  Level Kansas City Center
03:53PM 38.6944 -92.0733 37° Northeast 490 564 37,000  Level Kansas City Center
03:54PM 38.8033 -91.9703 36° Northeast 486 559 37,000  Level Kansas City Center
03:55PM 38.9117 -91.8647 37° Northeast 487 560 37,000  Level Kansas City Center
03:56PM 39.0203 -91.7569 38° Northeast 489 563 37,000  Level Kansas City Center
03:57PM 39.1206 -91.6608 37° Northeast 487 560 37,000  Level Kansas City Center
03:58PM 39.2525 -91.5331 37° Northeast 491 565 37,000  Level Kansas City Center
03:59PM 39.3656 -91.4231 37° Northeast 501 577 37,000 -300 Level Kansas City Center
04:00PM 39.4781 -91.3117 37° Northeast 505 581 36,400 -720 Descending Kansas City Center
04:01PM 39.5922 -91.1981 37° Northeast 510 587 35,500 -960 Descending Kansas City Center
04:02PM 39.7061 -91.0836 38° Northeast 515 593 34,500 -1,020 Descending Kansas City Center
04:03PM 39.8294 -90.9597 38° Northeast 513 590 33,400 -720 Descending Kansas City Center
04:04PM 39.9381 -90.8511 37° Northeast 499 574 33,000 -180 Descending Kansas City Center
04:06PM 40.1092 -90.6794 37° Northeast 493 567 33,000  Level Chicago Center
04:06PM 40.1544 -90.6319 39° Northeast 493 567 33,000  Level Kansas City Center
04:07PM 40.2194 -90.5667 37° Northeast 491 565 33,000  Level Chicago Center
04:08PM 40.3514 -90.4322 38° Northeast 500 575 33,000  Level Chicago Center
04:09PM 40.4608 -90.3183 38° Northeast 501 577 33,000  Level Chicago Center
04:10PM 40.5617 -90.2158 38° Northeast 497 572 33,000  Level Chicago Center
04:11PM 40.6931 -90.0789 38° Northeast 504 580 33,000 -840 Level Chicago Center
04:12PM 40.8028 -89.9642 38° Northeast 504 580 31,300 -1,920 Descending Chicago Center
04:13PM 40.9067 -89.8542 39° Northeast 486 559 29,100 -2,220 Descending Chicago Center
04:14PM 41.0089 -89.7464 38° Northeast 484 557 26,800 -2,280 Descending Chicago Center
04:15PM 41.1125 -89.6389 38° Northeast 474 545 24,400 -2,280 Descending Chicago Center
04:16PM 41.2069 -89.4781 52° Northeast 468 539 22,100 -2,040 Descending Chicago Center
04:17PM 41.2653 -89.3292 62° Northeast 459 528 20,200 -2,040 Descending Chicago Center
04:18PM 41.3217 -89.1892 62° Northeast 439 505 18,000 -2,100 Descending Chicago Center
04:19PM 41.3747 -89.0531 63° Northeast 422 486 15,900 -2,100 Descending Chicago Center
04:20PM 41.4292 -88.9192 61° Northeast 414 476 13,700 -2,040 Descending Chicago Center
04:21PM 41.4781 -88.7944 62° Northeast 387 445 11,700 -1,320 Descending Chicago Center
04:22PM 41.5358 -88.6481 62° Northeast 369 425 11,000 -420 Descending Chicago Center
04:23PM 41.5825 -88.5292 62° Northeast 363 418 10,900 -540 Descending Chicago Center
04:24PM 41.6392 -88.4150 56° Northeast 367 422 10,000 -480 Descending Chicago Center
04:25PM 41.7011 -88.3058 53° Northeast 365 420 10,000  Level Chicago Center
04:27PM 41.7647 -88.1986 51° Northeast 365 420 10,000  Level Chicago Center
04:28PM 41.8219 -88.0883 55° Northeast 358 412 10,000 -660 Level Chicago Center
04:29PM 41.8439 -87.9817 75° East 299 344 8,700 -1,320 Descending Chicago Center
04:30PM 41.8714 -87.8628 73° East 282 325 7,300 -1,140 Descending Chicago Center
04:30PM 41.8833 -87.8167 71° East 240 276 7,000 -1,380 Descending Chicago TRACON
04:31PM 41.8833 -87.7333 90° East 230 265 5,300 -1,440 Descending Chicago TRACON
04:32PM 41.9167 -87.6667 56° Northeast 235 270 4,200 -900 Descending Chicago TRACON
04:33PM 41.9500 -87.7167 312° West 217 250 3,500 -720 Descending Chicago TRACON